Time;durP1;ratioP1;P1;durP2;ratioP2;P2;SDS_P1;SDS_P2;PMS_P1;PMS_P2;Temp;Humidity;BMP_temperature;BMP_pressure;BME280_temperature;BME280_humidity;BME280_pressure;Samples;Min_cycle;Max_cycle;Signal;HPM_P1;HPM_P2
2023/11/19 00:03:49;;;;;;;4.93;2.80;;;;;;;8.31;69.50;99589.00;10517561;28;20036;-66
2023/11/19 00:08:52;;;;;;;5.30;2.85;;;;;;;8.33;69.74;99613.22;10515344;28;20568;-67
2023/11/19 00:13:54;;;;;;;4.63;2.45;;;;;;;8.40;69.51;99598.94;10517136;28;20051;-66
2023/11/19 00:18:56;;;;;;;7.32;3.33;;;;;;;8.43;69.48;99598.75;10516295;28;20050;-66
2023/11/19 00:23:58;;;;;;;7.68;2.80;;;;;;;8.45;69.58;99586.47;10516590;28;20062;-67
2023/11/19 00:29:00;;;;;;;6.03;2.88;;;;;;;8.50;69.30;99589.69;10515425;28;20097;-66
2023/11/19 00:34:02;;;;;;;5.43;3.10;;;;;;;8.36;69.55;99584.41;10516235;28;20048;-66
2023/11/19 00:39:05;;;;;;;4.88;2.83;;;;;;;8.42;69.47;99577.09;10514421;28;20075;-67
2023/11/19 00:44:07;;;;;;;6.15;2.80;;;;;;;8.53;69.33;99550.38;10516266;28;20047;-67
2023/11/19 00:49:11;;;;;;;8.48;3.92;;;;;;;8.63;69.25;99548.94;10515260;28;20506;-66
2023/11/19 00:54:13;;;;;;;9.48;3.47;;;;;;;8.62;69.10;99521.19;10464681;28;20399;-67
2023/11/19 00:59:15;;;;;;;7.57;3.00;;;;;;;8.64;69.17;99524.56;10496830;28;20036;-67
2023/11/19 01:04:17;;;;;;;6.10;3.10;;;;;;;8.66;69.12;99533.13;10515085;28;20565;-66
2023/11/19 01:09:20;;;;;;;4.85;2.97;;;;;;;8.48;69.28;99522.00;10495713;28;20071;-66
2023/11/19 01:14:22;;;;;;;6.05;3.17;;;;;;;8.50;69.54;99524.53;10491884;28;20458;-66
2023/11/19 01:19:24;;;;;;;9.68;2.90;;;;;;;8.58;69.46;99512.72;10496764;28;20048;-66
2023/11/19 01:24:28;;;;;;;6.32;3.65;;;;;;;8.72;69.30;99515.38;10513711;28;20500;-66
2023/11/19 01:29:30;;;;;;;9.52;3.55;;;;;;;8.74;69.32;99500.47;10516018;28;20058;-66
2023/11/19 01:34:33;;;;;;;5.97;2.97;;;;;;;8.67;69.35;99501.75;10521992;28;20125;-66
2023/11/19 01:39:35;;;;;;;5.28;2.85;;;;;;;8.61;69.52;99496.91;10522355;28;20411;-66
2023/11/19 01:44:37;;;;;;;6.63;3.50;;;;;;;8.55;69.75;99509.44;10519801;28;20062;-66
2023/11/19 01:49:39;;;;;;;7.50;3.60;;;;;;;8.48;69.93;99510.75;10522002;28;20400;-66
2023/11/19 01:54:41;;;;;;;4.57;2.60;;;;;;;8.48;70.05;99497.72;10521717;28;20047;-66
2023/11/19 01:59:44;;;;;;;4.40;2.50;;;;;;;8.57;70.20;99498.00;10522350;28;20570;-66
2023/11/19 02:04:49;;;;;;;4.20;2.80;;;;;;;8.67;70.12;99490.47;10498937;28;20043;-66
2023/11/19 02:09:51;;;;;;;5.20;3.00;;;;;;;8.68;70.10;99471.31;10520851;28;20064;-66
2023/11/19 02:14:53;;;;;;;7.20;3.40;;;;;;;8.75;70.07;99454.38;10502852;28;20787;-66
2023/11/19 02:19:55;;;;;;;6.00;3.03;;;;;;;8.89;69.73;99451.78;10501511;28;20036;-66
2023/11/19 02:25:04;;;;;;;5.45;2.35;;;;;;;8.83;69.92;99439.94;10518060;28;20072;-66
2023/11/19 02:30:08;;;;;;;6.43;2.47;;;;;;;8.96;69.98;99447.03;10518647;28;20468;-66
2023/11/19 02:35:11;;;;;;;5.25;2.40;;;;;;;9.01;70.11;99450.19;10520347;28;20124;-66
2023/11/19 02:40:13;;;;;;;4.68;1.67;;;;;;;9.19;70.22;99462.13;10517601;28;20109;-66
2023/11/19 02:45:16;;;;;;;6.43;2.40;;;;;;;9.09;70.37;99458.41;10501658;28;20050;-66
2023/11/19 02:50:24;;;;;;;3.50;1.58;;;;;;;9.25;70.60;99428.66;10519174;28;20048;-66
2023/11/19 02:55:30;;;;;;;5.82;2.33;;;;;;;9.32;70.32;99440.38;10518903;28;20539;-66
2023/11/19 03:00:35;;;;;;;7.72;3.63;;;;;;;9.42;70.23;99441.47;10519418;28;20125;-66
2023/11/19 03:05:40;;;;;;;3.70;2.10;;;;;;;9.55;70.30;99434.56;10501179;28;20445;-66
2023/11/19 03:10:42;;;;;;;1.48;1.00;;;;;;;9.58;70.80;99425.72;10499713;28;20062;-66
2023/11/19 03:15:44;;;;;;;2.03;1.30;;;;;;;9.74;70.96;99416.00;10519043;28;20048;-65
2023/11/19 03:20:47;;;;;;;2.05;1.02;;;;;;;9.90;70.73;99416.66;10516308;28;20055;-66
2023/11/19 03:25:49;;;;;;;0.98;0.70;;;;;;;10.01;70.99;99423.81;10483685;28;21554;-65
2023/11/19 03:30:51;;;;;;;2.30;1.00;;;;;;;10.12;71.03;99409.09;10517563;28;20050;-66
2023/11/19 03:35:53;;;;;;;1.63;0.60;;;;;;;10.14;71.13;99419.44;10517980;28;20044;-65
2023/11/19 03:40:55;;;;;;;0.68;0.65;;;;;;;10.29;71.09;99407.97;10498443;28;20047;-65
2023/11/19 03:45:57;;;;;;;0.63;0.40;;;;;;;10.31;71.18;99403.47;10517163;28;20048;-66
2023/11/19 03:50:59;;;;;;;0.88;0.70;;;;;;;10.49;71.01;99410.09;10516045;28;20051;-65
2023/11/19 03:56:01;;;;;;;0.60;0.50;;;;;;;10.55;70.83;99404.44;10517382;28;20050;-66
2023/11/19 04:01:10;;;;;;;0.60;0.40;;;;;;;10.64;70.77;99401.22;10496791;28;20055;-65
2023/11/19 04:06:12;;;;;;;0.63;0.40;;;;;;;10.76;70.57;99395.16;10497611;28;20044;-66
2023/11/19 04:11:15;;;;;;;1.52;0.65;;;;;;;10.82;70.53;99389.50;10516237;28;20089;-65
2023/11/19 04:16:17;;;;;;;0.40;0.40;;;;;;;10.84;70.51;99384.13;10497153;28;20876;-65
2023/11/19 04:21:19;;;;;;;0.20;0.20;;;;;;;10.82;70.60;99376.41;10516062;28;20126;-66
2023/11/19 04:26:21;;;;;;;0.30;0.30;;;;;;;10.89;70.69;99380.25;10497304;28;20044;-66
2023/11/19 04:31:23;;;;;;;0.22;0.22;;;;;;;10.82;70.60;99381.63;10516550;28;20048;-67
2023/11/19 04:36:29;;;;;;;0.55;0.55;;;;;;;10.83;70.42;99390.31;10490038;28;20044;-66
2023/11/19 04:41:31;;;;;;;1.48;0.80;;;;;;;10.87;70.59;99397.84;10498257;28;20411;-66
2023/11/19 04:46:33;;;;;;;0.47;0.47;;;;;;;10.80;70.57;99386.13;10513874;28;20056;-65
2023/11/19 04:51:39;;;;;;;2.08;0.60;;;;;;;10.72;70.66;99378.00;10516053;28;20048;-66
2023/11/19 04:56:46;;;;;;;0.75;0.43;;;;;;;10.43;70.97;99397.44;10514239;28;20046;-66
2023/11/19 05:01:48;;;;;;;0.95;0.80;;;;;;;10.44;70.79;99407.78;10515509;28;20051;-67
2023/11/19 05:06:50;;;;;;;0.32;0.30;;;;;;;10.56;70.86;99398.28;10519431;28;20135;-67
2023/11/19 05:11:52;;;;;;;0.20;0.20;;;;;;;10.62;70.99;99384.78;10523893;28;20167;-67
2023/11/19 05:16:54;;;;;;;2.38;0.32;;;;;;;10.61;71.05;99387.50;10504394;28;20054;-66
2023/11/19 05:21:56;;;;;;;0.25;0.25;;;;;;;10.58;71.09;99385.09;10524356;28;20402;-66
2023/11/19 05:26:59;;;;;;;0.20;0.20;;;;;;;10.57;71.09;99386.03;10522941;28;20039;-66
2023/11/19 05:32:01;;;;;;;0.20;0.20;;;;;;;10.57;71.23;99376.41;10523035;28;20048;-66
2023/11/19 05:37:05;;;;;;;1.02;0.55;;;;;;;10.46;71.25;99381.56;10522071;28;20054;-66
2023/11/19 05:42:07;;;;;;;0.28;0.28;;;;;;;10.39;71.47;99385.50;10522088;28;20528;-66
2023/11/19 05:47:09;;;;;;;0.22;0.22;;;;;;;10.35;71.34;99394.50;10504413;28;20040;-66
2023/11/19 05:52:12;;;;;;;2.05;0.30;;;;;;;10.31;71.43;99400.88;10521767;28;20048;-66
2023/11/19 05:57:14;;;;;;;0.50;0.40;;;;;;;10.42;71.47;99407.03;10522641;28;20047;-66
2023/11/19 06:02:16;;;;;;;0.50;0.40;;;;;;;10.41;71.80;99407.16;10521804;28;20136;-66
2023/11/19 06:07:18;;;;;;;0.20;0.20;;;;;;;10.47;71.81;99409.34;10521459;28;20877;-66
2023/11/19 06:12:21;;;;;;;0.30;0.30;;;;;;;10.55;71.66;99420.13;10520654;28;20131;-67
2023/11/19 06:17:23;;;;;;;0.38;0.38;;;;;;;10.64;71.78;99421.28;10520608;28;20052;-67
2023/11/19 06:22:25;;;;;;;1.52;0.45;;;;;;;10.79;71.50;99418.47;10521568;28;20089;-66
2023/11/19 06:27:27;;;;;;;0.10;0.10;;;;;;;10.88;71.33;99422.22;10501527;28;20048;-67
2023/11/19 06:32:29;;;;;;;0.55;0.28;;;;;;;10.87;71.50;99424.00;10520493;28;20513;-67
2023/11/19 06:37:31;;;;;;;0.20;0.20;;;;;;;10.75;71.17;99431.84;10520901;28;20394;-66
2023/11/19 06:42:34;;;;;;;1.02;0.52;;;;;;;10.54;71.21;99428.94;10504392;28;20507;-66
2023/11/19 06:47:36;;;;;;;0.17;0.17;;;;;;;10.43;71.59;99429.66;10521755;28;20044;-68
2023/11/19 06:52:38;;;;;;;0.47;0.47;;;;;;;10.41;71.52;99430.69;10499919;28;20512;-66
2023/11/19 06:57:40;;;;;;;0.60;0.45;;;;;;;10.38;71.63;99436.94;10517699;28;20136;-65
2023/11/19 07:02:44;;;;;;;0.57;0.50;;;;;;;10.26;71.67;99444.75;10520157;28;20130;-66
2023/11/19 07:07:46;;;;;;;0.50;0.50;;;;;;;10.19;71.56;99448.72;10518206;28;20047;-67
2023/11/19 07:12:50;;;;;;;1.45;0.57;;;;;;;10.18;71.72;99436.59;10498244;28;20224;-67
2023/11/19 07:17:54;;;;;;;1.92;0.60;;;;;;;10.14;71.24;99446.41;10518561;28;20036;-68
2023/11/19 07:23:00;;;;;;;0.98;0.95;;;;;;;10.01;71.92;99449.94;10499990;28;20902;-68
2023/11/19 07:28:04;;;;;;;0.73;0.60;;;;;;;9.98;71.86;99445.75;10498147;28;20140;-67
2023/11/19 07:33:06;;;;;;;0.85;0.73;;;;;;;10.03;71.81;99454.13;10500025;28;20036;-66
2023/11/19 07:38:08;;;;;;;11.63;1.42;;;;;;;10.14;71.50;99461.25;10517834;28;20052;-67
2023/11/19 07:43:10;;;;;;;1.48;0.90;;;;;;;10.19;70.85;99470.47;10498819;28;20488;-67
2023/11/19 07:48:13;;;;;;;4.93;1.38;;;;;;;10.23;70.37;99481.56;10499150;28;20043;-67
2023/11/19 07:53:15;;;;;;;4.75;1.88;;;;;;;10.30;70.13;99488.03;10516747;28;20449;-66
2023/11/19 07:58:17;;;;;;;3.88;1.30;;;;;;;10.38;69.70;99494.44;10517762;28;20902;-67
2023/11/19 08:03:21;;;;;;;6.32;1.75;;;;;;;10.49;69.34;99504.22;10516803;28;20044;-68
2023/11/19 08:08:24;;;;;;;2.50;1.27;;;;;;;10.72;68.63;99484.38;10516711;28;20577;-68
2023/11/19 08:13:26;;;;;;;3.33;1.08;;;;;;;10.87;68.25;99478.09;10515687;28;20052;-67
2023/11/19 08:18:28;;;;;;;7.03;1.20;;;;;;;10.85;67.99;99493.91;10516403;28;20052;-67
2023/11/19 08:23:30;;;;;;;29.67;1.50;;;;;;;10.95;67.95;99487.09;10497142;28;20052;-67
2023/11/19 08:28:34;;;;;;;2.63;0.93;;;;;;;11.05;66.70;99482.13;10516589;28;20118;-68
2023/11/19 08:33:36;;;;;;;5.65;1.67;;;;;;;11.17;65.45;99489.94;10496953;28;20062;-67
2023/11/19 08:38:38;;;;;;;3.22;1.15;;;;;;;11.33;65.77;99479.25;10516221;28;20127;-67
2023/11/19 08:43:41;;;;;;;2.67;0.85;;;;;;;11.32;64.21;99475.81;10514889;28;20075;-67
2023/11/19 08:48:43;;;;;;;8.35;1.63;;;;;;;11.49;64.35;99487.72;10516058;28;20416;-67
2023/11/19 08:53:45;;;;;;;6.93;1.80;;;;;;;11.45;63.64;99493.28;10515155;28;20139;-67
2023/11/19 08:58:47;;;;;;;8.70;2.17;;;;;;;11.48;62.86;99493.06;10497697;28;20048;-67
2023/11/19 09:03:49;;;;;;;4.05;1.92;;;;;;;11.43;63.11;99493.38;10514856;28;20056;-67
2023/11/19 09:08:51;;;;;;;5.47;1.33;;;;;;;11.53;61.36;99507.50;10515434;28;20458;-68
2023/11/19 09:13:53;;;;;;;4.53;1.20;;;;;;;11.55;62.04;99496.91;10513923;28;20056;-67
2023/11/19 09:18:55;;;;;;;4.38;1.25;;;;;;;11.65;61.26;99516.28;10514861;28;20051;-67
2023/11/19 09:23:57;;;;;;;6.88;1.40;;;;;;;11.70;59.96;99501.09;10513076;28;20427;-67
2023/11/19 09:28:59;;;;;;;4.78;1.15;;;;;;;11.93;58.30;99498.47;10514394;28;20155;-67
2023/11/19 09:34:01;;;;;;;3.22;1.38;;;;;;;12.01;58.46;99508.41;10496048;28;20109;-68
2023/11/19 09:39:04;;;;;;;5.95;1.88;;;;;;;12.01;58.55;99503.16;10480884;28;20040;-67
2023/11/19 09:44:06;;;;;;;4.57;1.38;;;;;;;12.16;57.81;99509.91;10512694;28;20036;-67
2023/11/19 09:49:09;;;;;;;4.30;1.30;;;;;;;12.17;58.09;99526.50;10496209;28;20043;-65
2023/11/19 09:54:12;;;;;;;4.70;1.65;;;;;;;12.08;57.72;99507.03;10521342;28;20076;-65
2023/11/19 09:59:14;;;;;;;4.13;1.55;;;;;;;12.04;57.05;99514.28;10522321;28;20127;-64
2023/11/19 10:04:19;;;;;;;4.97;1.52;;;;;;;12.12;56.64;99508.47;10499684;28;20036;-65
2023/11/19 10:09:21;;;;;;;2.95;1.23;;;;;;;12.14;56.04;99517.06;10522100;28;20040;-66
2023/11/19 10:14:23;;;;;;;5.55;1.65;;;;;;;12.26;55.88;99526.66;10518438;28;20062;-66
2023/11/19 10:19:26;;;;;;;3.13;1.00;;;;;;;12.46;55.06;99506.84;10520026;28;20044;-66
2023/11/19 10:24:33;;;;;;;7.20;2.22;;;;;;;12.55;55.04;99512.28;10499453;28;20135;-66
2023/11/19 10:29:37;;;;;;;3.40;0.88;;;;;;;12.68;55.75;99510.38;10517897;28;20048;-66
2023/11/19 10:34:41;;;;;;;4.22;1.15;;;;;;;12.74;55.91;99506.50;10515627;28;20044;-66
2023/11/19 10:39:56;;;;;;;6.90;1.73;;;;;;;12.76;54.83;99512.47;10501721;28;20044;-66
2023/11/19 10:44:59;;;;;;;3.55;1.27;;;;;;;12.82;55.84;99493.63;10518340;28;20048;-66
2023/11/19 10:50:01;;;;;;;8.80;1.95;;;;;;;12.85;55.52;99488.97;10519337;28;20059;-66
2023/11/19 10:55:08;;;;;;;5.13;1.42;;;;;;;12.81;54.44;99489.31;10497534;28;20051;-66
2023/11/19 11:00:16;;;;;;;9.38;1.92;;;;;;;12.98;54.59;99480.16;10508527;28;20036;-66
2023/11/19 11:05:21;;;;;;;3.85;1.33;;;;;;;12.95;54.56;99484.69;10508608;28;20089;-66
2023/11/19 11:10:26;;;;;;;6.22;2.00;;;;;;;13.04;54.90;99477.91;10515985;28;20072;-66
2023/11/19 11:15:30;;;;;;;4.60;1.83;;;;;;;13.31;54.16;99457.38;10507194;28;20051;-66
2023/11/19 11:20:33;;;;;;;7.63;2.42;;;;;;;13.43;52.83;99463.50;10512597;28;20051;-66
2023/11/19 11:26:00;;;;;;;7.15;2.00;;;;;;;13.43;51.54;99463.50;10516074;28;20048;-66
2023/11/19 11:31:09;;;;;;;8.38;2.15;;;;;;;13.59;53.14;99448.19;10509480;28;20059;-67
2023/11/19 11:36:22;;;;;;;10.20;1.50;;;;;;;13.48;52.05;99454.28;10509653;28;20046;-66
2023/11/19 11:41:25;;;;;;;6.53;1.85;;;;;;;13.45;52.88;99467.69;10511092;28;20070;-66
2023/11/19 11:46:37;;;;;;;5.63;1.70;;;;;;;13.50;52.17;99462.88;10495355;28;20499;-67
2023/11/19 11:51:45;;;;;;;11.55;2.05;;;;;;;13.52;51.84;99458.34;10515265;28;20074;-66
2023/11/19 11:57:03;;;;;;;4.45;1.10;;;;;;;13.45;50.59;99464.22;10516648;28;20043;-66
2023/11/19 12:02:10;;;;;;;4.70;1.40;;;;;;;13.25;51.68;99454.41;10498288;28;20052;-66
2023/11/19 12:07:14;;;;;;;6.32;1.63;;;;;;;13.36;51.74;99457.00;10514098;28;20401;-66
2023/11/19 12:12:22;;;;;;;6.63;1.65;;;;;;;13.50;50.57;99451.53;10514771;28;20138;-66
2023/11/19 12:17:51;;;;;;;4.55;1.50;;;;;;;13.68;50.87;99427.25;10516204;28;20056;-66
2023/11/19 12:22:54;;;;;;;6.25;1.77;;;;;;;13.45;51.12;99415.16;10484257;28;20068;-66
2023/11/19 12:27:56;;;;;;;8.60;2.03;;;;;;;13.48;51.32;99406.16;10514381;28;20126;-66
2023/11/19 12:32:59;;;;;;;3.90;1.52;;;;;;;13.63;50.88;99408.41;10514781;28;20066;-66
2023/11/19 12:38:01;;;;;;;3.47;1.60;;;;;;;13.48;49.59;99395.66;10515097;28;20032;-66
2023/11/19 12:43:03;;;;;;;5.65;1.85;;;;;;;13.72;50.45;99373.50;10496180;28;20104;-66
2023/11/19 12:48:06;;;;;;;4.65;1.77;;;;;;;13.56;50.00;99388.00;10515433;28;20059;-67
2023/11/19 12:53:08;;;;;;;4.55;1.38;;;;;;;13.79;50.53;99373.84;10514626;28;20063;-66
2023/11/19 12:58:10;;;;;;;4.25;1.50;;;;;;;13.89;50.44;99380.00;10514857;28;20067;-66
2023/11/19 13:03:12;;;;;;;7.25;1.63;;;;;;;13.92;49.23;99381.56;10514557;28;20488;-66
2023/11/19 13:08:14;;;;;;;5.10;1.20;;;;;;;13.89;49.37;99385.25;10515400;28;20048;-67
2023/11/19 13:13:17;;;;;;;3.78;1.67;;;;;;;14.17;49.04;99360.97;10513645;28;20059;-66
2023/11/19 13:18:19;;;;;;;6.28;1.17;;;;;;;14.07;49.55;99354.81;10511752;28;20063;-67
2023/11/19 13:23:21;;;;;;;7.80;1.33;;;;;;;14.01;48.84;99363.22;10514018;28;20389;-66
2023/11/19 13:28:23;;;;;;;5.65;1.30;;;;;;;14.05;49.09;99361.16;10520942;28;20131;-66
2023/11/19 13:33:26;;;;;;;5.38;0.90;;;;;;;14.24;48.73;99351.63;10522222;28;21007;-67
2023/11/19 13:38:28;;;;;;;3.88;1.38;;;;;;;14.01;49.32;99351.88;10505240;28;20132;-67
2023/11/19 13:43:31;;;;;;;3.10;1.17;;;;;;;14.13;49.00;99345.59;10521656;28;20496;-66
2023/11/19 13:48:33;;;;;;;7.18;1.65;;;;;;;13.89;47.58;99351.09;10522857;28;20138;-67
2023/11/19 13:53:35;;;;;;;2.47;1.13;;;;;;;13.80;48.38;99332.63;10520926;28;20148;-67
2023/11/19 13:58:40;;;;;;;5.15;1.20;;;;;;;13.77;49.02;99325.81;10522010;28;20484;-67
2023/11/19 14:03:42;;;;;;;4.32;1.25;;;;;;;13.70;49.29;99350.91;10521859;28;20052;-66
2023/11/19 14:08:44;;;;;;;6.20;1.38;;;;;;;13.63;49.40;99340.09;10521276;28;20047;-66
2023/11/19 14:13:47;;;;;;;5.38;1.35;;;;;;;13.57;48.81;99321.38;10521008;28;20091;-66
2023/11/19 14:18:49;;;;;;;4.28;1.30;;;;;;;13.45;49.99;99315.34;10520336;28;20042;-66
2023/11/19 14:23:51;;;;;;;9.30;1.83;;;;;;;13.45;50.06;99310.06;10501751;28;20040;-66
2023/11/19 14:28:53;;;;;;;5.68;1.52;;;;;;;13.17;49.91;99338.66;10502807;28;20427;-66
2023/11/19 14:33:56;;;;;;;3.95;1.83;;;;;;;13.11;50.63;99336.50;10520677;28;20270;-66
2023/11/19 14:38:58;;;;;;;4.88;1.50;;;;;;;13.00;50.61;99349.63;10510155;28;20048;-67
2023/11/19 14:44:01;;;;;;;2.20;0.90;;;;;;;13.00;50.36;99353.09;10515589;28;20052;-66
2023/11/19 14:49:07;;;;;;;4.88;1.05;;;;;;;12.92;50.85;99352.88;10513019;28;21269;-67
2023/11/19 14:54:09;;;;;;;3.45;1.05;;;;;;;12.78;50.84;99351.31;10509686;28;20058;-67
2023/11/19 14:59:11;;;;;;;1.80;0.93;;;;;;;12.68;50.79;99362.66;10516943;28;20514;-67
2023/11/19 15:04:13;;;;;;;5.97;2.03;;;;;;;12.66;51.39;99362.75;10521053;28;20484;-65
2023/11/19 15:09:17;;;;;;;5.20;1.48;;;;;;;12.53;51.53;99354.16;10517958;28;20036;-65
2023/11/19 15:14:19;;;;;;;8.30;1.45;;;;;;;12.38;51.96;99347.47;10515726;28;20047;-65
2023/11/19 15:19:22;;;;;;;3.35;0.85;;;;;;;12.36;52.25;99357.22;10515244;28;20036;-66
2023/11/19 15:24:25;;;;;;;7.30;2.13;;;;;;;12.41;52.49;99346.41;10517706;28;20129;-65
2023/11/19 15:29:28;;;;;;;6.60;1.38;;;;;;;12.43;52.17;99350.59;10518459;28;20062;-65
2023/11/19 15:34:30;;;;;;;2.95;1.17;;;;;;;12.45;52.64;99350.47;10516744;28;20056;-65
2023/11/19 15:39:33;;;;;;;2.50;1.35;;;;;;;12.31;52.62;99364.63;10518103;28;20047;-66
2023/11/19 15:44:36;;;;;;;2.05;1.10;;;;;;;12.27;52.90;99373.66;10516999;28;20043;-66
2023/11/19 15:49:37;;;;;;;8.23;1.30;;;;;;;12.29;52.46;99376.19;10515958;28;20131;-65
2023/11/19 15:54:40;;;;;;;2.97;1.20;;;;;;;12.25;52.59;99367.69;10516609;28;20051;-66
2023/11/19 15:59:42;;;;;;;4.50;1.38;;;;;;;12.07;53.09;99382.13;10493748;28;20040;-65
2023/11/19 16:04:47;;;;;;;4.25;2.00;;;;;;;11.91;52.98;99368.50;10516367;28;20097;-65
2023/11/19 16:09:49;;;;;;;5.97;1.38;;;;;;;11.98;53.06;99380.22;10517715;28;20044;-65
2023/11/19 16:14:51;;;;;;;5.68;1.58;;;;;;;11.96;53.20;99387.38;10515700;28;20087;-65
2023/11/19 16:19:53;;;;;;;4.03;1.50;;;;;;;11.99;53.15;99394.97;10516656;28;20508;-65
2023/11/19 16:24:55;;;;;;;4.50;1.33;;;;;;;12.12;53.20;99399.22;10497868;28;20042;-65
2023/11/19 16:29:58;;;;;;;4.80;1.00;;;;;;;12.05;53.30;99405.84;10481601;28;20036;-66
2023/11/19 16:35:00;;;;;;;4.20;1.90;;;;;;;11.96;53.49;99403.94;10511869;28;20048;-66
2023/11/19 16:40:03;;;;;;;5.35;1.58;;;;;;;12.03;53.33;99401.66;10512024;28;20105;-66
2023/11/19 16:45:06;;;;;;;5.60;1.05;;;;;;;12.00;53.36;99401.91;10511529;28;20385;-66
2023/11/19 16:50:08;;;;;;;3.08;1.30;;;;;;;11.84;53.39;99419.72;10515911;28;20048;-66
2023/11/19 16:55:14;;;;;;;3.50;1.55;;;;;;;11.76;53.52;99408.94;10513659;28;20433;-66
2023/11/19 17:00:16;;;;;;;2.33;1.20;;;;;;;11.67;53.83;99420.09;10507561;28;20032;-66
2023/11/19 17:05:19;;;;;;;6.55;1.98;;;;;;;11.58;54.21;99426.81;10502148;28;20040;-66
2023/11/19 17:10:21;;;;;;;3.80;1.42;;;;;;;11.61;54.32;99418.75;10512836;28;20048;-66
2023/11/19 17:15:23;;;;;;;2.25;1.08;;;;;;;11.72;54.09;99428.47;10510655;28;20052;-66
2023/11/19 17:20:25;;;;;;;2.60;1.15;;;;;;;11.69;54.12;99428.66;10491246;28;20051;-66
2023/11/19 17:25:27;;;;;;;4.50;1.65;;;;;;;11.70;54.24;99430.34;10512420;28;20064;-66
2023/11/19 17:30:28;;;;;;;10.10;1.95;;;;;;;11.53;54.47;99436.78;10512213;28;20083;-66
2023/11/19 17:35:33;;;;;;;4.95;1.27;;;;;;;11.41;54.42;99431.59;10513274;28;20752;-66
2023/11/19 17:40:35;;;;;;;8.48;1.85;;;;;;;11.28;54.96;99448.16;10515095;28;20052;-67
2023/11/19 17:45:39;;;;;;;6.25;2.38;;;;;;;11.34;54.53;99435.59;10508243;28;20801;-67
2023/11/19 17:50:41;;;;;;;4.90;1.77;;;;;;;11.38;54.61;99431.81;10509769;28;20139;-69
2023/11/19 17:55:44;;;;;;;3.83;1.30;;;;;;;11.27;54.67;99430.78;10509875;28;20408;-69
2023/11/19 18:00:46;;;;;;;2.33;1.20;;;;;;;11.16;54.92;99424.63;10514300;28;20290;-69
2023/11/19 18:05:48;;;;;;;7.38;1.40;;;;;;;11.12;54.73;99421.41;10508442;28;20039;-69
2023/11/19 18:10:50;;;;;;;8.43;2.30;;;;;;;10.96;54.95;99428.59;10515853;28;20048;-69
2023/11/19 18:15:53;;;;;;;4.68;2.17;;;;;;;10.89;54.77;99427.34;10519632;28;20578;-69
2023/11/19 18:20:55;;;;;;;7.03;1.70;;;;;;;10.96;55.21;99418.16;10519022;28;20522;-70
2023/11/19 18:26:00;;;;;;;5.47;1.75;;;;;;;11.00;55.10;99414.38;10501611;28;20040;-70
2023/11/19 18:31:03;;;;;;;6.40;1.85;;;;;;;11.06;55.17;99415.75;10515525;28;20155;-71
2023/11/19 18:36:06;;;;;;;4.88;2.10;;;;;;;11.18;54.98;99423.59;10516744;28;20044;-71
2023/11/19 18:41:08;;;;;;;5.50;1.98;;;;;;;11.25;54.83;99416.94;10518964;28;20241;-71
2023/11/19 18:46:11;;;;;;;3.70;1.80;;;;;;;11.43;54.77;99411.38;10512143;28;20059;-68
2023/11/19 18:51:13;;;;;;;4.68;1.70;;;;;;;11.36;54.92;99418.00;10516309;28;20040;-70
2023/11/19 18:56:16;;;;;;;5.07;1.90;;;;;;;11.36;54.65;99413.59;10499611;28;20040;-70
2023/11/19 19:01:18;;;;;;;5.75;1.80;;;;;;;11.45;54.69;99412.09;10494874;28;20040;-69
2023/11/19 19:06:21;;;;;;;4.45;1.83;;;;;;;11.44;54.78;99398.16;10518600;28;20081;-69
2023/11/19 19:11:23;;;;;;;3.25;1.73;;;;;;;11.36;54.85;99403.09;10517713;28;20121;-70
2023/11/19 19:16:25;;;;;;;7.40;1.90;;;;;;;11.40;54.86;99398.50;10519037;28;20055;-70
2023/11/19 19:21:30;;;;;;;4.53;1.27;;;;;;;11.38;55.07;99406.47;10517239;28;20133;-68
2023/11/19 19:26:32;;;;;;;6.65;1.77;;;;;;;11.45;55.11;99412.94;10518938;28;20032;-68
2023/11/19 19:31:34;;;;;;;5.75;1.70;;;;;;;11.54;54.96;99408.84;10515986;28;20048;-68
2023/11/19 19:36:36;;;;;;;7.13;2.40;;;;;;;11.51;54.74;99412.50;10518564;28;20276;-69
2023/11/19 19:41:39;;;;;;;6.68;1.98;;;;;;;11.57;54.90;99416.44;10510720;28;20077;-69
2023/11/19 19:46:44;;;;;;;6.68;1.73;;;;;;;11.62;54.30;99417.78;10511598;28;20044;-69
2023/11/19 19:51:46;;;;;;;10.23;2.40;;;;;;;11.52;54.74;99400.25;10518335;28;20052;-69
2023/11/19 19:56:48;;;;;;;6.63;1.50;;;;;;;11.58;54.01;99397.19;10517180;28;20079;-69
2023/11/19 20:01:51;;;;;;;8.10;1.80;;;;;;;11.55;54.61;99407.88;10497346;28;20075;-67
2023/11/19 20:06:53;;;;;;;4.88;1.90;;;;;;;11.63;54.07;99400.28;10496500;28;20415;-69
2023/11/19 20:11:57;;;;;;;5.35;1.70;;;;;;;11.58;54.66;99389.34;10499315;28;20135;-66
2023/11/19 20:17:00;;;;;;;7.45;3.03;;;;;;;11.43;54.80;99398.28;10513812;28;20052;-69
2023/11/19 20:22:05;;;;;;;7.75;2.35;;;;;;;11.49;54.58;99390.81;10516219;28;20036;-69
2023/11/19 20:27:14;;;;;;;7.85;1.38;;;;;;;11.54;54.47;99400.97;10515758;28;20131;-70
2023/11/19 20:32:16;;;;;;;4.40;1.98;;;;;;;11.58;54.50;99390.16;10515072;28;20048;-70
2023/11/19 20:37:18;;;;;;;6.20;1.20;;;;;;;11.53;54.38;99389.66;10498386;28;20043;-68
2023/11/19 20:42:20;;;;;;;4.07;1.25;;;;;;;11.60;54.63;99414.44;10499038;28;20048;-68
2023/11/19 20:47:24;;;;;;;8.43;2.03;;;;;;;11.67;54.32;99399.97;10515878;28;20138;-68
2023/11/19 20:52:26;;;;;;;2.20;1.10;;;;;;;11.61;54.49;99400.41;10481083;28;20060;-70
2023/11/19 20:57:28;;;;;;;6.03;1.45;;;;;;;11.67;54.69;99402.59;10515381;28;20101;-68
2023/11/19 21:02:31;;;;;;;4.50;1.48;;;;;;;11.58;54.65;99407.66;10516266;28;20191;-68
2023/11/19 21:07:33;;;;;;;4.55;1.38;;;;;;;11.71;54.77;99405.81;10513476;28;20040;-69
2023/11/19 21:12:35;;;;;;;5.65;2.05;;;;;;;11.76;54.79;99396.69;10497062;28;20155;-69
2023/11/19 21:17:37;;;;;;;4.05;1.25;;;;;;;11.77;54.81;99397.50;10514227;28;20123;-69
2023/11/19 21:22:40;;;;;;;2.92;1.58;;;;;;;11.75;55.05;99400.25;10496051;28;20040;-69
2023/11/19 21:27:42;;;;;;;4.13;1.85;;;;;;;11.73;55.14;99402.16;10510996;28;20038;-70
2023/11/19 21:32:44;;;;;;;6.75;2.08;;;;;;;11.79;55.21;99396.47;10514930;28;20547;-70
2023/11/19 21:37:46;;;;;;;3.45;1.33;;;;;;;11.63;55.26;99405.53;10513702;28;20136;-68
2023/11/19 21:42:48;;;;;;;6.50;1.40;;;;;;;11.73;55.15;99409.16;10514572;28;20404;-68
2023/11/19 21:47:50;;;;;;;2.83;1.50;;;;;;;11.72;55.36;99412.75;10517052;28;20148;-70
2023/11/19 21:52:52;;;;;;;4.75;2.10;;;;;;;11.68;55.63;99400.81;10518301;28;20393;-68
2023/11/19 21:57:54;;;;;;;3.08;1.10;;;;;;;11.65;55.50;99407.09;10521199;28;20050;-70
2023/11/19 22:02:56;;;;;;;5.88;1.70;;;;;;;11.64;55.41;99407.22;10521858;28;20051;-69
2023/11/19 22:07:58;;;;;;;2.95;1.27;;;;;;;11.75;55.38;99404.66;10520914;28;20051;-69
2023/11/19 22:13:19;;;;;;;4.17;1.27;;;;;;;11.79;55.16;99404.31;10506318;28;20130;-68
2023/11/19 22:18:21;;;;;;;2.85;1.35;;;;;;;11.78;55.61;99412.28;10504045;28;21092;-68
2023/11/19 22:23:23;;;;;;;4.30;1.55;;;;;;;11.71;55.64;99416.28;10502588;28;20130;-70
2023/11/19 22:28:25;;;;;;;1.27;0.73;;;;;;;11.65;55.38;99404.47;10521561;28;20055;-69
2023/11/19 22:33:28;;;;;;;5.20;1.58;;;;;;;11.59;55.74;99397.06;10519998;28;20583;-68
2023/11/19 22:38:30;;;;;;;3.38;0.98;;;;;;;11.58;56.00;99381.47;10520146;28;20036;-70
2023/11/19 22:43:32;;;;;;;2.47;1.00;;;;;;;11.59;55.84;99393.59;10520130;28;20044;-68
2023/11/19 22:48:34;;;;;;;3.83;1.42;;;;;;;11.66;55.97;99387.81;10520066;28;20044;-68
2023/11/19 22:53:36;;;;;;;9.57;1.67;;;;;;;11.74;55.84;99392.50;10519678;28;20055;-68
2023/11/19 22:58:38;;;;;;;3.83;0.82;;;;;;;11.71;56.04;99404.03;10520341;28;20858;-68
2023/11/19 23:03:40;;;;;;;5.35;1.40;;;;;;;11.76;56.07;99403.72;10518559;28;20147;-68
2023/11/19 23:08:42;;;;;;;3.65;1.20;;;;;;;11.64;56.17;99400.19;10519089;28;20036;-68
2023/11/19 23:13:44;;;;;;;4.30;1.00;;;;;;;11.80;56.19;99394.69;10520279;28;20087;-68
2023/11/19 23:18:46;;;;;;;3.33;1.10;;;;;;;11.74;56.30;99403.00;10518645;28;20051;-68
2023/11/19 23:23:48;;;;;;;2.70;1.08;;;;;;;11.82;56.42;99411.97;10519372;28;20534;-69
2023/11/19 23:28:51;;;;;;;4.57;1.45;;;;;;;11.85;56.70;99418.75;10518278;28;20050;-68
2023/11/19 23:34:03;;;;;;;2.83;1.33;;;;;;;11.87;56.36;99417.69;10518677;28;20044;-68